Weather at Shkodër Airport [CLOSED]

Public forecast

Using degrees Celsius for public forecast. Weather courtesy of forecast.io.

Closest aviation weather report (METAR) to Shkodër Airport

Closest report is Podgorica Airport / Podgorica Golubovci Airbase, 19.8 nm (36.7 km) NW. Retrieved 2022/06/24 22:00 UTC (1 minute ago):

LYPG 242200Z 08004KT CAVOK 25/18 Q1012 NOSIG

Closest aviation forecast (TAF) to Shkodër Airport

Closest forecast is Podgorica Airport / Podgorica Golubovci Airbase, 19.8 nm (36.7 km) NW. Retrieved 2022/06/24 18:21 UTC (4 hours ago):

TAF LYPG 241700Z 2418/2518 36005KT CAVOK TX34/2514Z TN21/2503Z PROB40 TEMPO 2512/2518 VRB15G25KT 5000 TSRA FEW033CB BKN040